Observation data for Haskell on 01/20/2019      Previous  Date  Next       Current Mesonet Observations  Soil Data  Daily Summary Page  Observations in Plain Language
KHA1 200600Z 08004KT M01/M06 A3034 RMK A01 T10101059  RH  069%=      5-min Rain = 0
KHA1 200605Z 07005KT M01/M06 A3034 RMK A01 T10091060  RH  069%=      5-min Rain = 0
KHA1 200610Z 07004KT M01/M06 A3035 RMK A01 T10111059  RH  070%=      5-min Rain = 0
KHA1 200615Z 08003KT M01/M06 A3036 RMK A01 T10131059  RH  071%=      5-min Rain = 0
KHA1 200620Z 09003KT M01/M06 A3036 RMK A01 T10141059  RH  071%=      5-min Rain = 0
KHA1 200625Z 09003KT M01/M06 A3036 RMK A01 T10131060  RH  070%=      5-min Rain = 0
KHA1 200630Z 09004KT M01/M06 A3035 RMK A01 T10121062  RH  069%=      5-min Rain = 0
KHA1 200635Z 10004KT M01/M06 A3036 RMK A01 T10121062  RH  069%=      5-min Rain = 0
KHA1 200640Z 08003KT M01/M06 A3036 RMK A01 T10131063  RH  069%=      5-min Rain = 0
KHA1 200645Z 08004KT M01/M06 A3036 RMK A01 T10131063  RH  069%=      5-min Rain = 0
KHA1 200650Z 09004KT M02/M06 A3035 RMK A01 T10161062  RH  071%=      5-min Rain = 0
KHA1 200655Z 10004KT M02/M06 A3035 RMK A01 T10171062  RH  072%=      5-min Rain = 0
KHA1 200700Z 09004KT M02/M06 A3035 RMK A01 T10171061  RH  072%=      5-min Rain = 0
KHA1 200705Z 09004KT M02/M06 A3035 RMK A01 T10181061  RH  072%=      5-min Rain = 0
KHA1 200710Z 08004KT M02/M06 A3035 RMK A01 T10191061  RH  073%=      5-min Rain = 0
KHA1 200715Z 07003KT M02/M06 A3036 RMK A01 T10211060  RH  075%=      5-min Rain = 0
KHA1 200720Z 11002KT M02/M06 A3037 RMK A01 T10231060  RH  076%=      5-min Rain = 0
KHA1 200725Z 11002KT M02/M06 A3036 RMK A01 T10211061  RH  074%=      5-min Rain = 0
KHA1 200730Z 12003KT M02/M06 A3035 RMK A01 T10221062  RH  074%=      5-min Rain = 0
KHA1 200735Z 16003KT M02/M06 A3035 RMK A01 T10221062  RH  075%=      5-min Rain = 0
KHA1 200740Z 17003KT M02/M06 A3035 RMK A01 T10221059  RH  076%=      5-min Rain = 0
KHA1 200745Z 17002KT M02/M06 A3035 RMK A01 T10241059  RH  077%=      5-min Rain = 0
KHA1 200750Z 18003KT M03/M06 A3035 RMK A01 T10251061  RH  076%=      5-min Rain = 0
KHA1 200755Z 19002KT M02/M06 A3035 RMK A01 T10241061  RH  076%=      5-min Rain = 0
KHA1 200800Z 16001KT M03/M06 A3035 RMK A01 T10261062  RH  076%=      5-min Rain = 0
KHA1 200805Z 20001KT M03/M06 A3036 RMK A01 T10261063  RH  075%=      5-min Rain = 0
KHA1 200810Z 19001KT M03/M06 A3036 RMK A01 T10261063  RH  076%=      5-min Rain = 0
KHA1 200815Z 20001KT M03/M06 A3036 RMK A01 T10281061  RH  078%=      5-min Rain = 0
KHA1 200820Z 21001KT M03/M06 A3036 RMK A01 T10301060  RH  080%=      5-min Rain = 0
KHA1 200825Z 23000KT M03/M06 A3036 RMK A01 T10321062  RH  080%=      5-min Rain = 0
KHA1 200830Z 00000KT M03/M07 A3036 RMK A01 T10321065  RH  078%=      5-min Rain = 0
KHA1 200835Z 23001KT M04/M06 A3037 RMK A01 T10371064  RH  081%=      5-min Rain = 0
KHA1 200840Z 24000KT M04/M06 A3037 RMK A01 T10361062  RH  082%=      5-min Rain = 0
KHA1 200845Z 25001KT M04/M06 A3036 RMK A01 T10361062  RH  082%=      5-min Rain = 0
KHA1 200850Z 00000KT M04/M06 A3036 RMK A01 T10391064  RH  083%=      5-min Rain = 0
KHA1 200855Z 00000KT M04/M06 A3036 RMK A01 T10401062  RH  085%=      5-min Rain = 0
KHA1 200900Z 00000KT M04/M06 A3035 RMK A01 T10401063  RH  085%=      5-min Rain = 0
KHA1 200905Z 26000KT M04/M06 A3035 RMK A01 T10401062  RH  084%=      5-min Rain = 0
KHA1 200910Z 06001KT M04/M06 A3035 RMK A01 T10401063  RH  084%=      5-min Rain = 0
KHA1 200915Z 15000KT M04/M06 A3036 RMK A01 T10401062  RH  085%=      5-min Rain = 0
KHA1 200920Z 17000KT M04/M06 A3036 RMK A01 T10381062  RH  084%=      5-min Rain = 0
KHA1 200925Z 21001KT M04/M06 A3036 RMK A01 T10381061  RH  084%=      5-min Rain = 0
KHA1 200930Z 22002KT M04/M06 A3036 RMK A01 T10391059  RH  087%=      5-min Rain = 0
KHA1 200935Z 22002KT M04/M06 A3036 RMK A01 T10401058  RH  087%=      5-min Rain = 0
KHA1 200940Z 23001KT M04/M06 A3036 RMK A01 T10411059  RH  087%=      5-min Rain = 0
KHA1 200945Z 24001KT M04/M06 A3036 RMK A01 T10431061  RH  087%=      5-min Rain = 0
KHA1 200950Z 24000KT M04/M06 A3036 RMK A01 T10441062  RH  087%=      5-min Rain = 0
KHA1 200955Z 24001KT M04/M06 A3036 RMK A01 T10441062  RH  087%=      5-min Rain = 0
KHA1 201000Z 23002KT M04/M06 A3036 RMK A01 T10441061  RH  088%=      5-min Rain = 0
KHA1 201005Z 23001KT M04/M06 A3036 RMK A01 T10431060  RH  088%=      5-min Rain = 0
KHA1 201010Z 22002KT M04/M06 A3035 RMK A01 T10411059  RH  088%=      5-min Rain = 0
KHA1 201015Z 19001KT M04/M06 A3035 RMK A01 T10421062  RH  086%=      5-min Rain = 0
KHA1 201020Z 19001KT M04/M06 A3035 RMK A01 T10411063  RH  085%=      5-min Rain = 0
KHA1 201025Z 19001KT M04/M06 A3035 RMK A01 T10411061  RH  086%=      5-min Rain = 0
KHA1 201030Z 20001KT M04/M06 A3035 RMK A01 T10401059  RH  087%=      5-min Rain = 0
KHA1 201035Z 20002KT M04/M06 A3034 RMK A01 T10381060  RH  085%=      5-min Rain = 0
KHA1 201040Z 21002KT M04/M06 A3035 RMK A01 T10371058  RH  086%=      5-min Rain = 0
KHA1 201045Z 21002KT M04/M06 A3034 RMK A01 T10381055  RH  088%=      5-min Rain = 0
KHA1 201050Z 21003KT M04/M06 A3034 RMK A01 T10391055  RH  089%=      5-min Rain = 0
KHA1 201055Z 22004KT M04/M06 A3034 RMK A01 T10401057  RH  088%=      5-min Rain = 0
KHA1 201100Z 23003KT M04/M06 A3035 RMK A01 T10431058  RH  089%=      5-min Rain = 0
KHA1 201105Z 24002KT M04/M06 A3035 RMK A01 T10421058  RH  089%=      5-min Rain = 0
KHA1 201110Z 23002KT M04/M06 A3034 RMK A01 T10421059  RH  088%=      5-min Rain = 0
KHA1 201115Z 22002KT M04/M06 A3034 RMK A01 T10381062  RH  084%=      5-min Rain = 0
KHA1 201120Z 22003KT M04/M06 A3034 RMK A01 T10361063  RH  082%=      5-min Rain = 0
KHA1 201125Z 22003KT M04/M06 A3034 RMK A01 T10361061  RH  083%=      5-min Rain = 0
KHA1 201130Z 21003KT M04/M06 A3034 RMK A01 T10361063  RH  081%=      5-min Rain = 0
KHA1 201135Z 22004KT M04/M06 A3034 RMK A01 T10361062  RH  082%=      5-min Rain = 0
KHA1 201140Z 22004KT M04/M06 A3034 RMK A01 T10391060  RH  085%=      5-min Rain = 0
KHA1 201145Z 20004KT M04/M06 A3033 RMK A01 T10411060  RH  087%=      5-min Rain = 0
KHA1 201150Z 20004KT M04/M06 A3033 RMK A01 T10391061  RH  085%=      5-min Rain = 0
KHA1 201155Z 20004KT M04/M06 A3033 RMK A01 T10371063  RH  082%=      5-min Rain = 0
KHA1 201200Z 19004KT M04/M06 A3033 RMK A01 T10361063  RH  082%=      5-min Rain = 0
KHA1 201205Z 17003KT M04/M06 A3033 RMK A01 T10361064  RH  081%=      5-min Rain = 0
KHA1 201210Z 17003KT M04/M07 A3034 RMK A01 T10351066  RH  079%=      5-min Rain = 0
KHA1 201215Z 17003KT M03/M07 A3033 RMK A01 T10331067  RH  078%=      5-min Rain = 0
KHA1 201220Z 17003KT M03/M07 A3033 RMK A01 T10331068  RH  077%=      5-min Rain = 0
KHA1 201225Z 17004KT M03/M07 A3033 RMK A01 T10321067  RH  077%=      5-min Rain = 0
KHA1 201230Z 17004KT M03/M07 A3032 RMK A01 T10321066  RH  077%=      5-min Rain = 0
KHA1 201235Z 17003KT M03/M07 A3032 RMK A01 T10321066  RH  077%=      5-min Rain = 0
KHA1 201240Z 17003KT M03/M07 A3032 RMK A01 T10301066  RH  076%=      5-min Rain = 0
KHA1 201245Z 17003KT M03/M07 A3032 RMK A01 T10301066  RH  076%=      5-min Rain = 0
KHA1 201250Z 17003KT M03/M07 A3032 RMK A01 T10311066  RH  077%=      5-min Rain = 0
KHA1 201255Z 17003KT M03/M07 A3032 RMK A01 T10311066  RH  076%=      5-min Rain = 0
KHA1 201300Z 18003KT M03/M07 A3033 RMK A01 T10301065  RH  077%=      5-min Rain = 0
KHA1 201305Z 18003KT M03/M06 A3033 RMK A01 T10311061  RH  080%=      5-min Rain = 0
KHA1 201310Z 18004KT M03/M06 A3033 RMK A01 T10331064  RH  079%=      5-min Rain = 0
KHA1 201315Z 18004KT M03/M06 A3033 RMK A01 T10331063  RH  079%=      5-min Rain = 0
KHA1 201320Z 18004KT M03/M06 A3033 RMK A01 T10321063  RH  079%=      5-min Rain = 0
KHA1 201325Z 19004KT M03/M06 A3033 RMK A01 T10331061  RH  081%=      5-min Rain = 0
KHA1 201330Z 18004KT M03/M06 A3033 RMK A01 T10341063  RH  080%=      5-min Rain = 0
KHA1 201335Z 18004KT M03/M06 A3033 RMK A01 T10331063  RH  079%=      5-min Rain = 0
KHA1 201340Z 18004KT M03/M06 A3033 RMK A01 T10321063  RH  079%=      5-min Rain = 0
KHA1 201345Z 20005KT M03/M06 A3033 RMK A01 T10311060  RH  081%=      5-min Rain = 0
KHA1 201350Z 19004KT M03/M06 A3034 RMK A01 T10321059  RH  082%=      5-min Rain = 0
KHA1 201355Z 19004KT M03/M06 A3034 RMK A01 T10311059  RH  081%=      5-min Rain = 0
KHA1 201400Z 20004KT M03/M06 A3034 RMK A01 T10311059  RH  081%=      5-min Rain = 0
KHA1 201405Z 19004KT M03/M06 A3034 RMK A01 T10311058  RH  082%=      5-min Rain = 0
KHA1 201410Z 19004KT M03/M06 A3034 RMK A01 T10301058  RH  081%=      5-min Rain = 0
KHA1 201415Z 20004KT M03/M06 A3034 RMK A01 T10301056  RH  082%=      5-min Rain = 0
KHA1 201420Z 19004KT M03/M06 A3034 RMK A01 T10291056  RH  082%=      5-min Rain = 0
KHA1 201425Z 19004KT M03/M06 A3033 RMK A01 T10291057  RH  081%=      5-min Rain = 0
KHA1 201430Z 19004KT M03/M06 A3033 RMK A01 T10281056  RH  082%=      5-min Rain = 0
KHA1 201435Z 18003KT M03/M06 A3033 RMK A01 T10261057  RH  080%=      5-min Rain = 0
KHA1 201440Z 17004KT M02/M06 A3033 RMK A01 T10231057  RH  078%=      5-min Rain = 0
KHA1 201445Z 17004KT M02/M06 A3033 RMK A01 T10191056  RH  076%=      5-min Rain = 0
KHA1 201450Z 17005KT M02/M06 A3033 RMK A01 T10151058  RH  073%=      5-min Rain = 0
KHA1 201455Z 17005KT M01/M06 A3033 RMK A01 T10131059  RH  071%=      5-min Rain = 0
KHA1 201500Z 17005KT M01/M06 A3033 RMK A01 T10101061  RH  068%=      5-min Rain = 0
KHA1 201505Z 17005KT M01/M06 A3033 RMK A01 T10081061  RH  068%=      5-min Rain = 0
KHA1 201510Z 17005KT M01/M06 A3033 RMK A01 T10071063  RH  066%=      5-min Rain = 0
KHA1 201515Z 17005KT M01/M06 A3033 RMK A01 T10061061  RH  067%=      5-min Rain = 0
KHA1 201520Z 17005KT M00/M06 A3033 RMK A01 T10041058  RH  067%=      5-min Rain = 0
KHA1 201525Z 17005KT 00/05 A3033 RMK A01 T00-00-54  RH  067%=      5-min Rain = 0
KHA1 201530Z 18006KT 00/M05 A3033 RMK A01 T00021054  RH  066%=      5-min Rain = 0
KHA1 201535Z 18007KT 00/M06 A3033 RMK A01 T00021056  RH  065%=      5-min Rain = 0
KHA1 201540Z 18007KT 00/M06 A3033 RMK A01 T00021056  RH  065%=      5-min Rain = 0
KHA1 201545Z 18006KT 00/M05 A3033 RMK A01 T00041053  RH  066%=      5-min Rain = 0
KHA1 201550Z 20008KT 01/M06 A3033 RMK A01 T00071055  RH  063%=      5-min Rain = 0
KHA1 201555Z 19008KT 01/M05 A3033 RMK A01 T00111053  RH  062%=      5-min Rain = 0
KHA1 201600Z 19008KT 01/M05 A3033 RMK A01 T00121053  RH  062%=      5-min Rain = 0
KHA1 201605Z 19008KT 01/M06 A3033 RMK A01 T00131055  RH  060%=      5-min Rain = 0
KHA1 201610Z 19007KT 02/M05 A3033 RMK A01 T00151054  RH  060%=      5-min Rain = 0
KHA1 201615Z 19007KT 02/M05 A3033 RMK A01 T00161054  RH  060%=      5-min Rain = 0
KHA1 201620Z 19008KT 02/M05 A3033 RMK A01 T00171052  RH  060%=      5-min Rain = 0
KHA1 201625Z 19008KT 02/M05 A3032 RMK A01 T00171053  RH  060%=      5-min Rain = 0
KHA1 201630Z 18008KT 02/M05 A3032 RMK A01 T00181051  RH  060%=      5-min Rain = 0
KHA1 201635Z 18008KT 02/M05 A3032 RMK A01 T00201051  RH  059%=      5-min Rain = 0
KHA1 201640Z 19008KT 02/M05 A3032 RMK A01 T00221050  RH  059%=      5-min Rain = 0
KHA1 201645Z 19007KT 03/M05 A3032 RMK A01 T00261046  RH  059%=      5-min Rain = 0
KHA1 201650Z 19008KT 03/M05 A3031 RMK A01 T00261050  RH  058%=      5-min Rain = 0
KHA1 201655Z 18007KT 03/M05 A3031 RMK A01 T00291048  RH  057%=      5-min Rain = 0
KHA1 201700Z 18008KT 03/M05 A3031 RMK A01 T00301048  RH  057%=      5-min Rain = 0
KHA1 201705Z 18007KT 03/M05 A303 RMK A01 T00311047  RH  057%=      5-min Rain = 0
KHA1 201710Z 18008KT 03/M05 A303 RMK A01 T00331047  RH  056%=      5-min Rain = 0
KHA1 201715Z 17006KT 04/M05 A303 RMK A01 T00361046  RH  055%=      5-min Rain = 0
KHA1 201720Z 16008KT 04/M05 A3029 RMK A01 T00381047  RH  054%=      5-min Rain = 0
KHA1 201725Z 17008KT 04/M05 A3029 RMK A01 T00411047  RH  053%=      5-min Rain = 0
KHA1 201730Z 18008KT 04/M05 A3029 RMK A01 T00421047  RH  052%=      5-min Rain = 0
KHA1 201735Z 17008KT 05/M04 A3029 RMK A01 T00461044  RH  052%=      5-min Rain = 0
KHA1 201740Z 18008KT 05/M04 A3028 RMK A01 T00491044  RH  051%=      5-min Rain = 0
KHA1 201745Z 17007KT 05/M04 A3028 RMK A01 T00511042  RH  051%=      5-min Rain = 0
KHA1 201750Z 17007KT 06/M04 A3028 RMK A01 T00571041  RH  049%=      5-min Rain = 0
KHA1 201755Z 16008KT 06/M04 A3028 RMK A01 T00581039  RH  050%=      5-min Rain = 0
KHA1 201800Z 17007KT 06/M04 A3028 RMK A01 T00611039  RH  049%=      5-min Rain = 0
KHA1 201805Z 17008KT 06/M04 A3027 RMK A01 T00621037  RH  050%=      5-min Rain = 0
KHA1 201810Z 17009KT 07/M04 A3027 RMK A01 T00661035  RH  049%=      5-min Rain = 0
KHA1 201815Z 17009KT 07/M03 A3026 RMK A01 T00691034  RH  048%=      5-min Rain = 0
KHA1 201820Z 17008KT 07/M03 A3025 RMK A01 T00741030  RH  048%=      5-min Rain = 0
KHA1 201825Z 17009KT 07/M03 A3025 RMK A01 T00721033  RH  047%=      5-min Rain = 0
KHA1 201830Z 17008KT 08/M03 A3025 RMK A01 T00751030  RH  048%=      5-min Rain = 0
KHA1 201835Z 15007KT 08/M03 A3025 RMK A01 T00821026  RH  047%=      5-min Rain = 0
KHA1 201840Z 15007KT 08/M03 A3025 RMK A01 T00841029  RH  045%=      5-min Rain = 0
KHA1 201845Z 14008KT 08/M03 A3024 RMK A01 T00831029  RH  045%=      5-min Rain = 0
KHA1 201850Z 16008KT 09/M03 A3024 RMK A01 T00881028  RH  044%=      5-min Rain = 0
KHA1 201855Z 16010G15KT 09/M03 A3023 RMK A01 T00911030  RH  043%=      5-min Rain = 0
KHA1 201900Z 16009KT 09/M03 A3022 RMK A01 T00931031  RH  042%=      5-min Rain = 0
KHA1 201905Z 16008KT 09/M03 A3022 RMK A01 T00931029  RH  042%=      5-min Rain = 0
KHA1 201910Z 17009KT 10/M03 A3022 RMK A01 T00961030  RH  041%=      5-min Rain = 0
KHA1 201915Z 17009G14KT 10/M03 A3022 RMK A01 T00991029  RH  041%=      5-min Rain = 0
KHA1 201920Z 16010KT 10/M03 A3022 RMK A01 T01001032  RH  040%=      5-min Rain = 0
KHA1 201925Z 19011G16KT 11/M03 A3021 RMK A01 T01051028  RH  040%=      5-min Rain = 0
KHA1 201930Z 17009KT 11/M03 A3021 RMK A01 T01101027  RH  039%=      5-min Rain = 0
KHA1 201935Z 17010KT 11/M03 A3021 RMK A01 T01131029  RH  037%=      5-min Rain = 0
KHA1 201940Z 17009G15KT 12/M03 A302 RMK A01 T01151027  RH  037%=      5-min Rain = 0
KHA1 201945Z 17011G16KT 12/M03 A3019 RMK A01 T01181029  RH  036%=      5-min Rain = 0
KHA1 201950Z 17012KT 12/M03 A3019 RMK A01 T01171030  RH  036%=      5-min Rain = 0
KHA1 201955Z 17011KT 12/M03 A3019 RMK A01 T01181030  RH  036%=      5-min Rain = 0
KHA1 202000Z 18010G16KT 12/M03 A3018 RMK A01 T01191028  RH  036%=      5-min Rain = 0
KHA1 202005Z 18011KT 12/M03 A3018 RMK A01 T01201028  RH  036%=      5-min Rain = 0
KHA1 202010Z 16010KT 12/M03 A3017 RMK A01 T01211029  RH  035%=      5-min Rain = 0
KHA1 202015Z 18010KT 12/M03 A3017 RMK A01 T01241026  RH  035%=      5-min Rain = 0
KHA1 202020Z 17008G14KT 13/M02 A3016 RMK A01 T01271024  RH  035%=      5-min Rain = 0
KHA1 202025Z 16010G15KT 12/M03 A3016 RMK A01 T01231029  RH  035%=      5-min Rain = 0
KHA1 202030Z 16011G16KT 13/M03 A3016 RMK A01 T01251028  RH  035%=      5-min Rain = 0
KHA1 202035Z 19009KT 13/M03 A3015 RMK A01 T01271026  RH  035%=      5-min Rain = 0
KHA1 202040Z 19008KT 13/M02 A3016 RMK A01 T01301024  RH  035%=      5-min Rain = 0
KHA1 202045Z 17009KT 13/M03 A3015 RMK A01 T01271026  RH  035%=      5-min Rain = 0
KHA1 202050Z 18009KT 13/M02 A3015 RMK A01 T01291024  RH  035%=      5-min Rain = 0
KHA1 202055Z 18008KT 13/M02 A3015 RMK A01 T01301022  RH  035%=      5-min Rain = 0
KHA1 202100Z 16007G12KT 13/M02 A3015 RMK A01 T01311023  RH  035%=      5-min Rain = 0
KHA1 202105Z 18006KT 13/M02 A3015 RMK A01 T01311021  RH  035%=      5-min Rain = 0
KHA1 202110Z 17008G13KT 13/M02 A3015 RMK A01 T01291023  RH  035%=      5-min Rain = 0
KHA1 202115Z 18009KT 13/M02 A3015 RMK A01 T01281022  RH  036%=      5-min Rain = 0
KHA1 202120Z 19009KT 13/M02 A3014 RMK A01 T01291020  RH  036%=      5-min Rain = 0
KHA1 202125Z 18007KT 13/M02 A3014 RMK A01 T01301017  RH  036%=      5-min Rain = 0
KHA1 202130Z 16008G13KT 13/M02 A3013 RMK A01 T01321017  RH  036%=      5-min Rain = 0
KHA1 202135Z 16009KT 13/M02 A3013 RMK A01 T01311018  RH  036%=      5-min Rain = 0
KHA1 202140Z 17009KT 13/M02 A3013 RMK A01 T01341017  RH  035%=      5-min Rain = 0
KHA1 202145Z 17010KT 13/M02 A3013 RMK A01 T01341019  RH  035%=      5-min Rain = 0
KHA1 202150Z 16008KT 14/M02 A3012 RMK A01 T01351016  RH  035%=      5-min Rain = 0
KHA1 202155Z 16008G13KT 13/M02 A3012 RMK A01 T01341016  RH  036%=      5-min Rain = 0
KHA1 202200Z 16007KT 13/M02 A3012 RMK A01 T01341015  RH  036%=      5-min Rain = 0
KHA1 202205Z 16006KT 13/M02 A3012 RMK A01 T01331015  RH  036%=      5-min Rain = 0
KHA1 202210Z 15006KT 13/M01 A3012 RMK A01 T01331013  RH  037%=      5-min Rain = 0
KHA1 202215Z 15006KT 13/M01 A3012 RMK A01 T01331012  RH  037%=      5-min Rain = 0
KHA1 202220Z 15006KT 13/M01 A3011 RMK A01 T01331012  RH  037%=      5-min Rain = 0
KHA1 202225Z 15006KT 13/M01 A3012 RMK A01 T01341012  RH  037%=      5-min Rain = 0
KHA1 202230Z 15006KT 14/M01 A3011 RMK A01 T01351010  RH  037%=      5-min Rain = 0
KHA1 202235Z 15005KT 14/M01 A3011 RMK A01 T01351011  RH  037%=      5-min Rain = 0
KHA1 202240Z 15006KT 14/M01 A3011 RMK A01 T01361009  RH  037%=      5-min Rain = 0
KHA1 202245Z 15007KT 14/M01 A3011 RMK A01 T01391007  RH  037%=      5-min Rain = 0
KHA1 202250Z 15008KT 14/M01 A3011 RMK A01 T01391007  RH  037%=      5-min Rain = 0
KHA1 202255Z 15007G13KT 14/M01 A3011 RMK A01 T01411005  RH  037%=      5-min Rain = 0
KHA1 202300Z 16009KT 14/M01 A301 RMK A01 T01421006  RH  037%=      5-min Rain = 0
KHA1 202305Z 16009G14KT 14/M01 A301 RMK A01 T01421006  RH  037%=      5-min Rain = 0
KHA1 202310Z 17009G14KT 14/M01 A301 RMK A01 T01431006  RH  036%=      5-min Rain = 0
KHA1 202315Z 17009G14KT 14/M01 A301 RMK A01 T01421005  RH  037%=      5-min Rain = 0
KHA1 202320Z 17008KT 14/M01 A301 RMK A01 T01411005  RH  037%=      5-min Rain = 0
KHA1 202325Z 16011KT 14/M01 A301 RMK A01 T01391008  RH  037%=      5-min Rain = 0
KHA1 202330Z 17009KT 14/M01 A301 RMK A01 T01381006  RH  038%=      5-min Rain = 0
KHA1 202335Z 17009KT 14/M01 A301 RMK A01 T01361005  RH  038%=      5-min Rain = 0
KHA1 202340Z 17010G15KT 13/M01 A301 RMK A01 T01341007  RH  038%=      5-min Rain = 0
KHA1 202345Z 17009KT 13/M01 A301 RMK A01 T01321007  RH  039%=      5-min Rain = 0
KHA1 202350Z 17007KT 13/M00 A301 RMK A01 T01291004  RH  040%=      5-min Rain = 0
KHA1 202355Z 17007KT 13/M00 A301 RMK A01 T01261003  RH  042%=      5-min Rain = 0
KHA1 210000Z 17007KT 12/M00 A301 RMK A01 T01231002  RH  043%=      5-min Rain = 0
KHA1 210005Z 17006KT 12/M00 A301 RMK A01 T01201001  RH  044%=      5-min Rain = 0
KHA1 210010Z 16006KT 12/00 A301 RMK A01 T01180000  RH  045%=      5-min Rain = 0
KHA1 210015Z 17007KT 12/00 A301 RMK A01 T011700-0  RH  045%=      5-min Rain = 0
KHA1 210020Z 16006KT 12/00 A301 RMK A01 T011500-0  RH  045%=      5-min Rain = 0
KHA1 210025Z 16006KT 11/M00 A301 RMK A01 T01141001  RH  046%=      5-min Rain = 0
KHA1 210030Z 17007KT 11/M00 A301 RMK A01 T01131002  RH  046%=      5-min Rain = 0
KHA1 210035Z 16007KT 11/M00 A301 RMK A01 T01111002  RH  046%=      5-min Rain = 0
KHA1 210040Z 16007KT 11/M00 A301 RMK A01 T01111003  RH  046%=      5-min Rain = 0
KHA1 210045Z 15007KT 11/M00 A301 RMK A01 T01101002  RH  046%=      5-min Rain = 0
KHA1 210050Z 15007KT 11/M00 A301 RMK A01 T01081002  RH  047%=      5-min Rain = 0
KHA1 210055Z 14006KT 11/M00 A301 RMK A01 T01061002  RH  048%=      5-min Rain = 0
KHA1 210100Z 14006KT 10/M00 A301 RMK A01 T01041001  RH  049%=      5-min Rain = 0
KHA1 210105Z 14006KT 10/M00 A301 RMK A01 T01021001  RH  049%=      5-min Rain = 0
KHA1 210110Z 14006KT 10/00 A301 RMK A01 T010100-0  RH  050%=      5-min Rain = 0
KHA1 210115Z 15007KT 10/M00 A301 RMK A01 T01011001  RH  050%=      5-min Rain = 0
KHA1 210120Z 15007KT 10/M00 A3009 RMK A01 T01011001  RH  050%=      5-min Rain = 0
KHA1 210125Z 15007KT 10/M00 A3009 RMK A01 T01031001  RH  049%=      5-min Rain = 0
KHA1 210130Z 15008KT 10/M00 A3009 RMK A01 T01031001  RH  049%=      5-min Rain = 0
KHA1 210135Z 15007KT 10/00 A3009 RMK A01 T010000-0  RH  050%=      5-min Rain = 0
KHA1 210140Z 15007KT 10/00 A301 RMK A01 T00990000  RH  051%=      5-min Rain = 0
KHA1 210145Z 14007KT 10/00 A3009 RMK A01 T00970001  RH  052%=      5-min Rain = 0
KHA1 210150Z 14007KT 09/00 A3009 RMK A01 T00930001  RH  053%=      5-min Rain = 0
KHA1 210155Z 14007KT 09/00 A3009 RMK A01 T00930001  RH  053%=      5-min Rain = 0
KHA1 210200Z 14007KT 09/00 A3009 RMK A01 T00910000  RH  053%=      5-min Rain = 0
KHA1 210205Z 14008KT 09/M00 A3009 RMK A01 T00891001  RH  054%=      5-min Rain = 0
KHA1 210210Z 14007KT 09/M00 A3009 RMK A01 T00861002  RH  054%=      5-min Rain = 0
KHA1 210215Z 15007KT 09/M00 A3009 RMK A01 T00851002  RH  055%=      5-min Rain = 0
KHA1 210220Z 14007KT 08/M00 A3008 RMK A01 T00831002  RH  056%=      5-min Rain = 0
KHA1 210225Z 14007KT 08/M00 A3008 RMK A01 T00801002  RH  057%=      5-min Rain = 0
KHA1 210230Z 14007KT 08/M00 A3008 RMK A01 T00781004  RH  057%=      5-min Rain = 0
KHA1 210235Z 14007KT 08/M01 A3008 RMK A01 T00771005  RH  057%=      5-min Rain = 0
KHA1 210240Z 14007KT 08/M01 A3008 RMK A01 T00761006  RH  057%=      5-min Rain = 0
KHA1 210245Z 14007KT 08/M01 A3008 RMK A01 T00761007  RH  056%=      5-min Rain = 0
KHA1 210250Z 14007G12KT 08/M01 A3008 RMK A01 T00761008  RH  056%=      5-min Rain = 0
KHA1 210255Z 14007G12KT 08/M01 A3008 RMK A01 T00751008  RH  056%=      5-min Rain = 0
KHA1 210300Z 14008KT 08/M01 A3008 RMK A01 T00751009  RH  056%=      5-min Rain = 0
KHA1 210305Z 15008KT 07/M01 A3007 RMK A01 T00731008  RH  057%=      5-min Rain = 0
KHA1 210310Z 14008KT 07/M01 A3007 RMK A01 T00731009  RH  057%=      5-min Rain = 0
KHA1 210315Z 14008KT 07/M01 A3007 RMK A01 T00721010  RH  056%=      5-min Rain = 0
KHA1 210320Z 14008KT 07/M01 A3007 RMK A01 T00721010  RH  056%=      5-min Rain = 0
KHA1 210325Z 15009KT 07/M01 A3007 RMK A01 T00711011  RH  057%=      5-min Rain = 0
KHA1 210330Z 15009KT 07/M01 A3007 RMK A01 T00721011  RH  056%=      5-min Rain = 0
KHA1 210335Z 15009KT 07/M01 A3006 RMK A01 T00711012  RH  056%=      5-min Rain = 0
KHA1 210340Z 15008G13KT 07/M01 A3006 RMK A01 T00701012  RH  056%=      5-min Rain = 0
KHA1 210345Z 15008KT 07/M01 A3006 RMK A01 T00691012  RH  057%=      5-min Rain = 0
KHA1 210350Z 14007KT 07/M01 A3006 RMK A01 T00671012  RH  057%=      5-min Rain = 0
KHA1 210355Z 14008KT 07/M01 A3006 RMK A01 T00661012  RH  058%=      5-min Rain = 0
KHA1 210400Z 14008KT 07/M01 A3006 RMK A01 T00651012  RH  058%=      5-min Rain = 0
KHA1 210405Z 14008KT 06/M01 A3005 RMK A01 T00641012  RH  059%=      5-min Rain = 0
KHA1 210410Z 14008KT 06/M01 A3005 RMK A01 T00641012  RH  059%=      5-min Rain = 0
KHA1 210415Z 14008G13KT 06/M01 A3005 RMK A01 T00641012  RH  059%=      5-min Rain = 0
KHA1 210420Z 14008KT 06/M01 A3005 RMK A01 T00631011  RH  060%=      5-min Rain = 0
KHA1 210425Z 14008KT 06/M01 A3005 RMK A01 T00621011  RH  060%=      5-min Rain = 0
KHA1 210430Z 14008KT 06/M01 A3005 RMK A01 T00621011  RH  060%=      5-min Rain = 0
KHA1 210435Z 14007KT 06/M01 A3005 RMK A01 T00601010  RH  061%=      5-min Rain = 0
KHA1 210440Z 14007KT 06/M01 A3005 RMK A01 T00591010  RH  062%=      5-min Rain = 0
KHA1 210445Z 15007KT 06/M01 A3005 RMK A01 T00591010  RH  062%=      5-min Rain = 0
KHA1 210450Z 15007KT 06/M01 A3004 RMK A01 T00571009  RH  063%=      5-min Rain = 0
KHA1 210455Z 15007KT 06/M01 A3004 RMK A01 T00571009  RH  063%=      5-min Rain = 0
KHA1 210500Z 15007KT 06/M01 A3004 RMK A01 T00571009  RH  063%=      5-min Rain = 0
KHA1 210505Z 14006KT 06/M01 A3004 RMK A01 T00571009  RH  063%=      5-min Rain = 0
KHA1 210510Z 14006KT 06/M01 A3004 RMK A01 T00571010  RH  063%=      5-min Rain = 0
KHA1 210515Z 14006KT 06/M01 A3005 RMK A01 T00551010  RH  064%=      5-min Rain = 0
KHA1 210520Z 14006KT 06/M01 A3005 RMK A01 T00551010  RH  064%=      5-min Rain = 0
KHA1 210525Z 14006KT 05/M01 A3005 RMK A01 T00541010  RH  064%=      5-min Rain = 0
KHA1 210530Z 15007KT 06/M01 A3005 RMK A01 T00561009  RH  064%=      5-min Rain = 0
KHA1 210535Z 15007KT 06/M01 A3005 RMK A01 T00561009  RH  063%=      5-min Rain = 0
KHA1 210540Z 15007KT 06/M01 A3005 RMK A01 T00571009  RH  063%=      5-min Rain = 0
KHA1 210545Z 15008KT 06/M01 A3005 RMK A01 T00581009  RH  063%=      5-min Rain = 0
KHA1 210550Z 15008KT 06/M01 A3005 RMK A01 T00581009  RH  063%=      5-min Rain = 0
KHA1 210555Z 16008KT 06/M01 A3004 RMK A01 T00601008  RH  062%=      5-min Rain = 0

Page generated in 0.01 seconds.